Latest Weather Observations for St George

IDQ60801

Issued at 3:02 pm EST Tuesday 28 April 2015 (issued every 30 minutes, with the page automatically refreshed every 10 minutes)

About weather observations | Map of weather stations | Latest weather observations for QLD | Other Formats
Station Details ID: 043109 Name: ST GEORGE AIRPORT Lat: -28.05 Lon: 148.59 Height: 198.5 m
Data from the previous 72 hours. | See also: Recent months at St George
Date/Time
EST
Temp
°C
App
Temp
°C
Dew
Point
Rel
Hum
%
Delta-T
°C
Wind Press
QNH
hPa
Press
MSL
hPa
Rain
since 9 am
mm
Dir
 
Spd
km/h
Gust
km/h
Spd
kts
Gust
kts
28/03:00pm 21.1 16.3 -2.7 20 10.1 SSW 13 19 7 10 1020.6 1019.9 0.0
28/02:30pm 21.0 17.0 0.2 25 9.4 S 11 19 6 10 1020.6 - 0.0
28/02:00pm 20.5 15.9 -0.7 24 9.4 S 13 20 7 11 1021.1 - 0.0
28/01:30pm 20.7 16.2 0.0 25 9.3 SSW 13 19 7 10 1021.4 - 0.0
28/01:00pm 20.3 17.3 1.7 29 8.6 SSW 7 15 4 8 1021.9 - 0.0
28/12:30pm 19.6 16.1 1.1 29 8.4 S 9 13 5 7 1022.5 - 0.0
28/12:00pm 19.2 15.5 2.1 32 7.9 S 11 19 6 10 1023.0 1022.3 0.0
28/11:30am 18.5 14.9 2.8 35 7.3 SSE 11 19 6 10 1023.4 - 0.0
28/11:00am 18.2 14.8 4.0 39 6.8 S 11 19 6 10 1023.9 - 0.0
28/10:30am 16.7 12.8 3.4 41 6.2 S 13 20 7 11 1024.2 - 0.0
28/10:00am 16.7 12.7 4.7 45 5.7 SSE 15 19 8 10 1024.3 - 0.0
28/09:30am 15.7 11.7 4.7 48 5.2 SSE 15 20 8 11 1024.5 - 0.0
28/09:00am 14.4 11.1 4.4 51 4.6 S 11 15 6 8 1024.6 1023.9 0.0
28/08:30am 12.5 9.1 4.2 57 3.8 S 11 15 6 8 1024.5 - 0.0
28/08:00am 10.9 8.0 4.4 64 2.9 SW 9 15 5 8 1024.4 - 0.0
28/07:30am 8.0 5.4 4.0 76 1.7 WSW 7 9 4 5 1024.1 - 0.0
28/07:00am 4.9 2.0 2.6 85 0.9 W 7 9 4 5 1023.9 - 0.0
28/06:30am 3.5 0.4 1.1 84 0.9 W 7 7 4 4 1023.5 - 0.0
28/06:00am 4.0 1.1 1.2 82 1.1 W 6 7 3 4 1023.2 1022.5 0.0
28/05:30am 5.8 3.7 1.9 76 1.6 SW 2 7 1 4 1022.8 - 0.0
28/05:00am 5.1 3.3 1.2 76 1.6 CALM 0 0 0 0 1022.4 - 0.0
28/04:30am 6.4 4.8 2.3 75 1.7 CALM 0 0 0 0 1022.3 - 0.0
28/04:00am 7.0 5.4 2.5 73 1.9 CALM 0 6 0 3 1022.1 - 0.0
28/03:30am 6.8 4.0 1.9 71 2.0 SW 6 7 3 4 1022.0 - 0.0
28/03:00am 7.7 4.4 2.4 69 2.2 SSW 9 11 5 6 1022.1 1021.4 0.0
28/02:30am 7.7 4.0 2.6 70 2.2 S 11 13 6 7 1022.1 - 0.0
28/02:00am 7.1 3.9 2.8 74 1.8 S 9 11 5 6 1022.1 - 0.0
28/01:30am 7.7 4.9 3.0 72 2.0 SSW 7 7 4 4 1022.2 - 0.0
28/01:00am 7.0 3.6 2.1 71 2.0 S 9 9 5 5 1022.5 - 0.0
28/12:30am 7.8 5.1 2.5 69 2.2 S 6 7 3 4 1022.7 - 0.0
28/12:00am 8.4 5.7 3.5 71 2.1 S 7 9 4 5 1022.8 1022.1 0.0
 
Date/Time
EST
Temp
°C
App
Temp
°C
Dew
Point
Rel
Hum
%
Delta-T
°C
Wind Press
QNH
hPa
Press
MSL
hPa
Rain
since 9 am
mm
Dir
 
Spd
km/h
Gust
km/h
Spd
kts
Gust
kts
27/11:30pm 7.5 4.8 3.9 78 1.6 S 7 7 4 4 1022.8 - 0.0
27/11:00pm 7.7 5.1 3.4 74 1.9 SSW 6 6 3 3 1022.8 - 0.0
27/10:30pm 7.7 5.0 2.8 71 2.1 SW 6 9 3 5 1022.9 - 0.0
27/10:00pm 9.5 8.2 3.9 68 2.5 CALM 0 0 0 0 1023.0 - 0.0
27/09:30pm 9.5 7.3 3.3 65 2.7 WSW 4 7 2 4 1022.8 - 0.0
27/09:00pm 10.4 7.8 3.2 61 3.1 SW 6 9 3 5 1022.4 1021.7 0.0
27/08:30pm 11.6 8.9 3.6 58 3.6 S 7 9 4 5 1022.0 - 0.0
27/08:00pm 12.1 8.9 3.3 55 3.9 S 9 11 5 6 1021.8 - 0.0
27/07:30pm 13.3 10.5 3.4 51 4.5 SSE 7 11 4 6 1021.4 - 0.0
27/07:00pm 13.8 10.7 3.6 50 4.7 S 9 13 5 7 1020.9 - 0.0
27/06:30pm 14.5 11.0 3.3 47 5.1 S 11 13 6 7 1020.5 - 0.0
27/06:00pm 15.9 12.8 3.4 43 5.8 S 9 11 5 6 1020.5 1019.8 0.0
27/05:30pm 17.4 13.7 2.2 36 6.9 S 11 15 6 8 1020.1 - 0.0
27/05:00pm 18.9 14.4 1.9 32 7.8 S 15 24 8 13 1020.0 - 0.0
27/04:30pm 19.6 14.3 2.0 31 8.1 S 19 24 10 13 1019.7 - 0.0
27/03:30pm 20.7 15.8 3.9 33 8.1 S 19 32 10 17 1019.3 - 0.0
27/03:00pm 20.2 15.9 3.0 32 8.1 SSW 15 20 8 11 1019.5 1018.8 0.0
27/02:30pm 20.4 15.3 3.2 32 8.2 SW 19 26 10 14 1019.6 - 0.0
27/02:00pm 20.1 15.1 3.8 34 7.8 SW 19 26 10 14 1019.7 - 0.0
27/01:30pm 19.6 15.4 3.7 35 7.6 SSW 15 28 8 15 1019.7 - 0.0
27/01:00pm 20.5 16.0 6.1 39 7.3 SSE 19 28 10 15 1020.0 - 0.0
27/12:30pm 19.3 15.4 5.4 40 6.9 SSW 15 24 8 13 1020.5 - 0.0
27/12:00pm 18.8 14.1 5.3 41 6.6 SSW 19 28 10 15 1020.9 1020.2 0.0
27/11:30am 17.7 14.1 5.0 43 6.2 SW 13 20 7 11 1021.3 - 0.0
27/11:00am 17.9 13.7 5.8 45 6.0 SSW 17 26 9 14 1021.8 - 0.0
27/10:30am 17.0 12.8 5.9 48 5.5 S 17 26 9 14 1022.2 - 0.0
27/10:00am 16.3 11.8 6.2 51 5.0 S 19 22 10 12 1022.4 - 0.0
27/09:30am 15.4 10.9 5.9 53 4.6 S 19 24 10 13 1022.5 - 0.0
27/09:00am 14.4 9.8 6.5 59 3.8 S 20 26 11 14 1022.6 1021.9 0.0
27/08:30am 13.8 9.9 7.3 65 3.2 S 17 22 9 12 1022.4 - 0.0
27/08:00am 12.0 8.9 7.1 72 2.4 SSW 13 19 7 10 1022.1 - 0.0
27/07:30am 10.4 7.2 6.7 78 1.8 SSW 13 20 7 11 1021.7 - 0.0
27/07:00am 8.3 5.4 6.4 88 0.9 SW 11 13 6 7 1021.3 - 0.0
27/06:30am 7.0 4.2 5.3 89 0.8 SW 9 9 5 5 1020.9 - 0.0
27/06:00am 6.7 4.2 4.9 88 0.8 W 7 7 4 4 1020.6 1019.9 0.0
27/05:30am 6.4 3.8 4.1 85 1.0 W 7 9 4 5 1020.4 - 0.0
27/05:00am 7.4 6.3 4.9 84 1.1 CALM 0 0 0 0 1020.1 - 0.0
27/04:30am 7.2 4.9 4.7 84 1.1 SW 6 9 3 5 1019.7 - 0.0
27/04:00am 6.6 4.0 4.1 84 1.1 W 7 11 4 6 1019.6 - 0.0
27/03:30am 7.0 4.1 4.7 85 1.0 W 9 13 5 7 1019.4 - 0.0
27/03:00am 7.4 6.2 4.5 82 1.3 CALM 0 0 0 0 1019.4 1018.7 0.0
27/02:30am 7.9 6.4 4.8 81 1.4 E 2 6 1 3 1019.6 - 0.0
27/02:00am 8.3 7.2 4.9 79 1.5 CALM 0 0 0 0 1019.5 - 0.0
27/01:30am 9.0 7.9 5.2 77 1.7 CALM 0 0 0 0 1019.6 - 0.0
27/01:00am 9.4 7.0 5.4 76 1.8 SSW 7 7 4 4 1019.5 - 0.0
27/12:30am 9.7 7.1 5.9 77 1.8 SSW 9 11 5 6 1019.7 - 0.0
27/12:00am 10.1 7.8 4.9 70 2.4 SSW 6 7 3 4 1020.0 1019.3 0.0
 
Date/Time
EST
Temp
°C
App
Temp
°C
Dew
Point
Rel
Hum
%
Delta-T
°C
Wind Press
QNH
hPa
Press
MSL
hPa
Rain
since 9 am
mm
Dir
 
Spd
km/h
Gust
km/h
Spd
kts
Gust
kts
26/11:30pm 10.5 8.2 4.9 68 2.6 S 6 7 3 4 1020.1 - 0.0
26/11:00pm 11.2 8.0 5.1 66 2.8 SSW 11 13 6 7 1020.1 - 0.0
26/10:30pm 10.8 8.3 4.5 65 2.9 SSW 7 9 4 5 1020.0 - 0.0
26/10:00pm 12.0 9.3 5.4 64 3.1 S 9 13 5 7 1020.0 - 0.0
26/09:30pm 11.8 8.8 4.3 60 3.4 W 9 9 5 5 1019.8 - 0.0
26/09:00pm 11.6 8.6 4.3 61 3.3 W 9 9 5 5 1019.8 1019.1 0.0
26/08:30pm 12.2 9.7 3.9 57 3.8 W 6 9 3 5 1019.7 - 0.0
26/08:00pm 13.7 11.0 3.8 51 4.5 WSW 7 9 4 5 1019.3 - 0.0
26/07:30pm 13.7 10.6 3.8 51 4.5 WSW 9 11 5 6 1019.0 - 0.0
26/07:00pm 14.4 11.3 3.8 49 4.9 SW 9 11 5 6 1018.6 - 0.0
26/06:30pm 15.2 11.7 3.7 46 5.3 SW 11 13 6 7 1018.4 - 0.0
26/06:00pm 16.3 13.1 3.0 41 6.1 SW 9 11 5 6 1018.0 1017.3 0.0
26/05:30pm 18.1 14.2 3.6 38 6.9 SW 13 19 7 10 1017.6 - 0.0
26/05:00pm 19.5 14.8 3.2 34 7.7 WSW 17 22 9 12 1017.3 - 0.0
26/04:30pm 19.9 15.1 2.7 32 8.1 WSW 17 22 9 12 1017.2 - 0.0
26/04:00pm 20.0 14.3 2.8 32 8.1 SW 22 33 12 18 1017.0 - 0.0
26/03:30pm 20.2 15.1 3.0 32 8.2 SW 19 26 10 14 1016.9 - 0.0
26/03:00pm 20.1 14.6 3.8 34 7.8 SW 22 37 12 20 1016.9 1016.1 0.0
26/02:30pm 19.7 13.3 3.0 33 7.9 SW 26 35 14 19 1016.8 - 0.0
26/02:00pm 19.2 14.0 3.4 35 7.5 SW 20 33 11 18 1017.0 - 0.0
26/01:30pm 19.1 12.3 3.3 35 7.5 SW 28 39 15 21 1017.1 - 0.0
26/01:00pm 18.7 12.9 2.5 34 7.5 SW 22 43 12 23 1017.4 - 0.0
26/12:30pm 18.0 12.8 3.5 38 6.8 SSW 20 35 11 19 1017.7 - 0.0
26/12:00pm 17.6 11.4 4.5 42 6.3 SW 26 35 14 19 1017.9 1017.2 0.0
26/11:30am 17.0 11.2 4.3 43 6.0 SW 24 35 13 19 1018.2 - 0.0
26/11:00am 16.0 10.2 4.4 46 5.5 SSW 24 32 13 17 1018.7 - 0.0
26/10:30am 15.9 10.3 5.5 50 5.0 SW 24 32 13 17 1018.9 - 0.0
26/10:00am 14.8 9.1 4.8 51 4.7 SW 24 33 13 18 1018.9 - 0.0
26/09:30am 14.0 8.3 5.1 55 4.2 SW 24 32 13 17 1018.8 - 0.0
26/09:00am 13.4 6.6 5.1 57 3.9 SW 30 41 16 22 1018.8 1018.1 0.0
26/08:30am 12.7 7.0 5.1 60 3.6 SW 24 37 13 20 1018.3 - 0.0
26/08:00am 12.1 7.2 5.0 62 3.3 WSW 20 30 11 16 1017.9 - 0.0
26/07:30am 11.3 7.2 4.5 63 3.1 WSW 15 22 8 12 1017.4 - 0.0
26/07:00am 10.5 6.4 4.6 67 2.7 WSW 15 20 8 11 1017.1 - 0.0
26/06:30am 9.9 5.8 4.3 68 2.5 WSW 15 22 8 12 1016.8 - 0.0
26/06:00am 9.5 6.2 4.5 71 2.2 WSW 11 15 6 8 1016.3 1015.6 0.0
26/05:30am 9.3 6.2 3.7 68 2.5 WSW 9 13 5 7 1015.9 - 0.0
26/05:00am 10.5 6.7 3.8 63 3.0 WSW 13 19 7 10 1015.6 - 0.0
26/04:30am 11.3 6.7 3.8 60 3.4 WSW 17 26 9 14 1015.2 - 0.0
26/04:00am 12.0 6.9 4.0 58 3.6 SW 20 26 11 14 1014.9 - 0.0
26/03:30am 12.3 7.3 3.8 56 3.8 SW 19 28 10 15 1014.6 - 0.0
26/03:00am 12.8 7.9 4.0 55 4.0 SW 19 24 10 13 1014.3 1013.6 0.0
26/02:30am 12.8 8.5 3.2 52 4.3 WSW 15 20 8 11 1014.0 - 0.0
26/02:00am 12.9 8.0 2.2 48 4.7 W 17 19 9 10 1013.6 - 0.0
26/01:30am 12.8 8.6 1.5 46 4.9 W 13 17 7 9 1013.6 - 0.0
26/01:00am 14.3 9.2 0.9 40 5.8 W 17 22 9 12 1013.6 - 0.0
26/12:30am 15.1 9.8 1.6 40 6.0 W 19 24 10 13 1013.6 - 0.0
26/12:00am 15.5 10.2 1.6 39 6.2 W 19 30 10 16 1013.7 1013.0 0.0
 
Date/Time
EST
Temp
°C
App
Temp
°C
Dew
Point
Rel
Hum
%
Delta-T
°C
Wind Press
QNH
hPa
Press
MSL
hPa
Rain
since 9 am
mm
Dir
 
Spd
km/h
Gust
km/h
Spd
kts
Gust
kts
25/11:30pm 15.9 9.4 0.1 34 6.8 WSW 24 39 13 21 1013.6 - 0.0
25/11:00pm 15.5 10.1 -1.5 31 7.1 W 17 22 9 12 1013.5 - 0.0
25/10:30pm 15.5 10.1 -1.5 31 7.1 W 17 22 9 12 1013.5 - 0.0
25/10:00pm 15.9 10.6 -0.8 32 7.1 W 17 20 9 11 1013.3 - 0.0
25/09:30pm 16.3 11.1 0.0 33 7.0 W 17 22 9 12 1013.2 - 0.0
25/09:00pm 15.9 11.3 1.6 38 6.4 W 15 17 8 9 1013.0 1012.3 0.0
25/08:30pm 16.4 12.2 1.7 37 6.6 W 13 17 7 9 1012.8 - 0.0
25/08:00pm 17.3 13.4 1.3 34 7.2 W 11 13 6 7 1012.3 - 0.0
25/07:30pm 17.9 13.3 1.4 33 7.4 W 15 17 8 9 1011.9 - 0.0
25/07:00pm 19.5 14.8 1.0 29 8.4 W 15 20 8 11 1011.4 - 0.0
25/06:30pm 19.6 15.5 2.0 31 8.1 W 13 19 7 10 1011.0 - 0.0
25/06:00pm 21.1 15.8 1.9 28 9.0 W 19 24 10 13 1010.4 1009.7 0.0
25/05:30pm 22.0 16.5 1.6 26 9.5 W 20 30 11 16 1010.0 - 0.0
25/05:00pm 23.4 17.0 1.1 23 10.4 W 24 41 13 22 1009.7 - 0.0
25/04:42pm 23.8 16.6 0.8 22 10.7 W 28 46 15 25 1009.5 - 0.0
25/04:30pm 24.3 17.2 1.2 22 10.9 W 28 39 15 21 1009.4 - 0.0
25/04:00pm 24.8 17.5 0.3 20 11.4 WNW 28 43 15 23 1009.2 - 0.0
25/03:30pm 25.5 19.5 3.5 24 10.9 WNW 24 35 13 19 1009.1 - 0.0

Other Formats:

Comma delimited format used in spreadsheet applications
http://www.bom.gov.au/fwo/IDQ60801/IDQ60801.94517.axf

JavaScript Object Notation format (JSON) in row-major order
http://www.bom.gov.au/fwo/IDQ60801/IDQ60801.94517.json